createdAt,value
2024-04-14T00:00:03.006Z,15.25
2024-04-14T00:05:02.791Z,14.83
2024-04-14T00:10:02.611Z,14.89
2024-04-14T00:15:02.400Z,15.11
2024-04-14T00:20:03.135Z,15.16
2024-04-14T00:25:03.153Z,14.97
2024-04-14T00:30:02.670Z,14.98
2024-04-14T00:35:02.338Z,15.01
2024-04-14T00:40:03.238Z,14.87
2024-04-14T00:45:02.853Z,14.87
2024-04-14T00:50:02.492Z,14.81
2024-04-14T00:55:04.506Z,15.2
2024-04-14T01:00:02.942Z,15
2024-04-14T01:05:02.580Z,15.33
2024-04-14T01:10:02.570Z,15.11
2024-04-14T01:15:03.034Z,15.26
2024-04-14T01:20:03.013Z,15.47
2024-04-14T01:25:03.039Z,15.53
2024-04-14T01:30:02.925Z,15.51
2024-04-14T01:35:02.569Z,15.42
2024-04-14T01:40:02.472Z,15.43
2024-04-14T01:45:03.062Z,15.18
2024-04-14T01:50:02.811Z,15.22
2024-04-14T01:55:03.778Z,15.1
2024-04-14T02:00:02.271Z,14.92
2024-04-14T02:05:02.922Z,14.9
2024-04-14T02:10:02.706Z,14.93
2024-04-14T02:15:02.574Z,14.81
2024-04-14T02:20:02.300Z,14.83
2024-04-14T02:25:03.024Z,14.8
2024-04-14T02:30:02.848Z,14.6
2024-04-14T02:35:02.486Z,14.55
2024-04-14T02:40:02.261Z,14.28
2024-04-14T02:45:03.080Z,14.36
2024-04-14T02:50:02.659Z,14.27
2024-04-14T02:55:03.964Z,14.25
2024-04-14T03:00:02.577Z,14.08
2024-04-14T03:05:02.236Z,13.96
2024-04-14T03:10:02.958Z,13.92
2024-04-14T03:15:02.668Z,14.39
2024-04-14T03:20:02.365Z,14.41
2024-04-14T03:25:03.136Z,14.23
2024-04-14T03:30:02.871Z,13.86
2024-04-14T03:35:02.558Z,13.32
2024-04-14T03:40:02.357Z,13.11
2024-04-14T03:45:02.264Z,13.03
2024-04-14T03:50:02.471Z,12.76
2024-04-14T03:55:04.123Z,12.71
2024-04-14T04:00:02.914Z,12.85
2024-04-14T04:05:02.552Z,12.78
2024-04-14T04:10:02.311Z,13.55
2024-04-14T04:15:02.495Z,14.11
2024-04-14T04:20:02.421Z,13.92
2024-04-14T04:25:03.121Z,14.2
2024-04-14T04:30:03.137Z,14.2
2024-04-14T04:35:02.863Z,14.22
2024-04-14T04:40:02.951Z,14.28
2024-04-14T04:45:02.667Z,14.3
2024-04-14T04:50:02.369Z,14.09
2024-04-14T04:55:03.353Z,13.51
2024-04-14T05:00:03.124Z,14.12
2024-04-14T05:05:02.824Z,14.17
2024-04-14T05:10:02.621Z,14.36
2024-04-14T05:15:02.524Z,13.89
2024-04-14T05:20:03.048Z,14.01
2024-04-14T05:25:02.753Z,14.03
2024-04-14T05:30:02.459Z,14.19
2024-04-14T05:35:02.228Z,14.35
2024-04-14T05:40:02.995Z,14.48
2024-04-14T05:45:02.894Z,14.64
2024-04-14T05:50:02.749Z,14.91
2024-04-14T05:55:03.763Z,14.96
2024-04-14T06:00:03.141Z,15.2
2024-04-14T06:05:02.832Z,15.31
2024-04-14T06:10:02.548Z,15.14
2024-04-14T06:15:03.216Z,15.05
2024-04-14T06:20:02.928Z,15.25
2024-04-14T06:25:02.677Z,15.4
2024-04-14T06:30:02.420Z,15.54
2024-04-14T06:35:03.063Z,15.64
2024-04-14T06:40:02.796Z,15.7
2024-04-14T06:45:02.492Z,15.83
2024-04-14T06:50:03.199Z,15.81
2024-04-14T06:55:03.958Z,16.51
2024-04-14T07:00:02.587Z,16.29
2024-04-14T07:05:02.320Z,15.6
2024-04-14T07:10:03.166Z,15.32
2024-04-14T07:15:02.938Z,15.14
2024-04-14T07:20:02.670Z,15.19
2024-04-14T07:25:02.464Z,15.11
2024-04-14T07:30:03.045Z,15
2024-04-14T07:35:02.635Z,15.04
2024-04-14T07:40:02.839Z,15.06
2024-04-14T07:45:03.407Z,15
2024-04-14T07:50:02.886Z,14.81
2024-04-14T07:55:03.388Z,14.85
2024-04-14T08:00:02.432Z,14.83
2024-04-14T08:05:03.262Z,15.06
2024-04-14T08:10:03.315Z,15.1
2024-04-14T08:15:02.695Z,15.52
2024-04-14T08:20:02.652Z,16.33
2024-04-14T08:25:03.215Z,16.25
2024-04-14T08:30:02.860Z,16.59
2024-04-14T08:35:02.489Z,16.56
2024-04-14T08:40:02.351Z,16.34
2024-04-14T08:45:03.105Z,16.23
2024-04-14T08:50:02.355Z,15.56
2024-04-14T08:55:04.410Z,15.68
2024-04-14T09:00:02.773Z,15.46
2024-04-14T09:05:02.478Z,15.55
2024-04-14T09:10:03.223Z,16.32
2024-04-14T09:15:02.905Z,16.16
2024-04-14T09:20:02.675Z,16.42
2024-04-14T09:25:02.416Z,16.75
2024-04-14T09:30:03.217Z,17.33
2024-04-14T09:35:02.904Z,16.69
2024-04-14T09:40:02.621Z,16.37
2024-04-14T09:45:02.502Z,16.28
2024-04-14T09:50:03.152Z,16.61
2024-04-14T09:55:03.853Z,16.05
2024-04-14T10:00:02.749Z,16.86
2024-04-14T10:05:02.587Z,16.98
2024-04-14T10:10:02.570Z,17.7
2024-04-14T10:15:03.558Z,17.72
2024-04-14T10:20:03.052Z,17.4
2024-04-14T10:25:02.804Z,17
2024-04-14T10:30:02.460Z,17.63
2024-04-14T10:35:03.167Z,16.95
2024-04-14T10:40:03.065Z,16.57
2024-04-14T10:45:02.749Z,16.66
2024-04-14T10:50:02.376Z,17.16
2024-04-14T10:55:04.270Z,16.98
2024-04-14T11:00:02.832Z,16.51
2024-04-14T11:05:02.569Z,16.56
2024-04-14T11:10:02.427Z,16.47
2024-04-14T11:15:03.045Z,16.89
2024-04-14T11:20:02.711Z,16.57
2024-04-14T11:25:02.656Z,16.89
2024-04-14T11:30:03.230Z,16.78
2024-04-14T11:35:02.901Z,16.93
2024-04-14T11:40:03.824Z,17.04
2024-04-14T11:45:02.596Z,16.14
2024-04-14T11:50:02.332Z,16.2
2024-04-14T11:55:04.948Z,16.35
2024-04-14T12:00:02.852Z,16.37
2024-04-14T12:05:02.643Z,16.04
2024-04-14T12:10:02.863Z,16.08
2024-04-14T12:15:02.521Z,16.06
2024-04-14T12:20:02.441Z,15.93
2024-04-14T12:25:02.377Z,16.18
2024-04-14T12:30:02.958Z,15.98
2024-04-14T12:35:02.859Z,16.54
2024-04-14T12:40:02.541Z,16.71
2024-04-14T12:45:03.129Z,17.52
2024-04-14T12:50:02.859Z,17.65
2024-04-14T12:55:03.541Z,17.39
2024-04-14T13:00:02.414Z,16.43
2024-04-14T13:05:03.128Z,16.15
2024-04-14T13:10:03.126Z,15.94
2024-04-14T13:15:02.788Z,16.24
2024-04-14T13:20:02.498Z,16.73
2024-04-14T13:25:03.224Z,16.71
2024-04-14T13:30:02.892Z,17.01
2024-04-14T13:35:02.867Z,16.69
2024-04-14T13:40:02.521Z,16.29
2024-04-14T13:45:02.337Z,16.83
2024-04-14T13:50:02.997Z,15.86
2024-04-14T13:55:07.236Z,17.05
2024-04-14T14:00:02.845Z,16.89
2024-04-14T14:05:02.950Z,17.39
2024-04-14T14:10:02.719Z,16.76
2024-04-14T14:15:02.519Z,16
2024-04-14T14:20:03.035Z,15.57
2024-04-14T14:25:02.716Z,15.26
2024-04-14T14:30:02.421Z,15.85
2024-04-14T14:35:03.119Z,15.92
2024-04-14T14:40:02.925Z,15.75
2024-04-14T14:45:02.585Z,15.32
2024-04-14T14:50:02.335Z,14.94
2024-04-14T14:55:04.224Z,15.23
2024-04-14T15:00:02.890Z,14.97
2024-04-14T15:05:02.664Z,14.76
2024-04-14T15:10:02.540Z,15.3
2024-04-14T15:15:03.098Z,15.97
2024-04-14T15:20:03.187Z,15.75
2024-04-14T15:25:02.928Z,16.36
2024-04-14T15:30:02.600Z,16.48
2024-04-14T15:35:02.194Z,16.27
2024-04-14T15:40:03.106Z,16.37
2024-04-14T15:45:02.845Z,15.41
2024-04-14T15:50:02.471Z,14.97
2024-04-14T15:55:05.100Z,15.01
2024-04-14T16:00:02.812Z,14.89
2024-04-14T16:05:02.665Z,15.07
2024-04-14T16:10:02.402Z,14.93
2024-04-14T16:15:03.026Z,14.71
2024-04-14T16:20:02.763Z,14.97
2024-04-14T16:25:02.568Z,15.28
2024-04-14T16:30:03.188Z,14.88
2024-04-14T16:35:02.788Z,14.36
2024-04-14T16:40:02.905Z,14.21
2024-04-14T16:45:02.664Z,13.95
2024-04-14T16:50:02.290Z,14.3
2024-04-14T16:55:04.500Z,14.25
2024-04-14T17:00:02.840Z,14.54
2024-04-14T17:05:02.562Z,14.44
2024-04-14T17:10:02.256Z,14.17
2024-04-14T17:15:03.040Z,14.09
2024-04-14T17:20:02.821Z,14.03
2024-04-14T17:25:02.815Z,13.62
2024-04-14T17:30:03.217Z,13.58
2024-04-14T17:35:02.858Z,13.44
2024-04-14T17:40:04.510Z,13.21
2024-04-14T17:45:03.167Z,12.68
2024-04-14T17:50:02.863Z,12.05
2024-04-14T17:55:03.709Z,11.66
2024-04-14T18:00:02.367Z,11.36
2024-04-14T18:05:02.914Z,10.94
2024-04-14T18:10:02.748Z,10.49
2024-04-14T18:15:02.789Z,10.26
2024-04-14T18:20:02.536Z,9.91
2024-04-14T18:25:02.267Z,10.06
2024-04-14T18:30:02.980Z,10.25
2024-04-14T18:35:02.725Z,10.98
2024-04-14T18:40:02.696Z,11.16
2024-04-14T18:45:02.443Z,12.17
2024-04-14T18:50:03.089Z,12.2
2024-04-14T18:55:03.937Z,12.17
2024-04-14T19:00:02.517Z,11.98
2024-04-14T19:05:03.119Z,11.3
2024-04-14T19:10:02.955Z,10.85
2024-04-14T19:15:02.825Z,10.51
2024-04-14T19:20:02.587Z,10.4
2024-04-14T19:25:02.356Z,10.35
2024-04-14T19:30:03.030Z,10.54
2024-04-14T19:35:02.710Z,10.31
2024-04-14T19:40:02.456Z,9.91
2024-04-14T19:45:03.412Z,9.77
2024-04-14T19:50:02.796Z,9.74
2024-04-14T19:55:03.342Z,9.69
2024-04-14T20:00:03.191Z,9.66
2024-04-14T20:05:02.779Z,9.37
2024-04-14T20:10:02.663Z,9.19
2024-04-14T20:15:02.340Z,9.15
2024-04-14T20:20:03.051Z,9.37
2024-04-14T20:25:02.833Z,9.52
2024-04-14T20:30:02.692Z,9.6
2024-04-14T20:35:02.338Z,9.51
2024-04-14T20:40:03.146Z,9.37
2024-04-14T20:45:02.738Z,9.4
2024-04-14T20:50:02.497Z,9.41
2024-04-14T20:55:04.131Z,9.44
2024-04-14T21:00:02.839Z,9.37
2024-04-14T21:05:02.465Z,9.37
2024-04-14T21:10:02.402Z,9.18
2024-04-14T21:15:02.438Z,8.93
2024-04-14T21:20:02.219Z,9.26
2024-04-14T21:25:03.119Z,9.4
2024-04-14T21:30:02.806Z,9.26
2024-04-14T21:35:02.397Z,9.08
2024-04-14T21:40:02.398Z,8.96
2024-04-14T21:45:03.217Z,9.18
2024-04-14T21:50:02.885Z,9.29
2024-04-14T21:55:04.290Z,9.21
2024-04-14T22:00:02.667Z,9.21
2024-04-14T22:05:02.642Z,9.32
2024-04-14T22:10:03.007Z,9.22
2024-04-14T22:15:02.685Z,8.94
2024-04-14T22:20:02.583Z,8.76
2024-04-14T22:25:03.146Z,8.5
2024-04-14T22:30:02.404Z,8.3
2024-04-14T22:35:03.172Z,8.11
2024-04-14T22:40:02.868Z,8.09
2024-04-14T22:45:02.488Z,7.93
2024-04-14T22:50:03.162Z,7.89
2024-04-14T22:55:03.904Z,7.82
2024-04-14T23:00:02.657Z,7.47
2024-04-14T23:05:02.362Z,7.46
2024-04-14T23:10:03.151Z,8
2024-04-14T23:15:03.126Z,7.97
2024-04-14T23:20:02.940Z,8.12
2024-04-14T23:25:02.679Z,8.08
2024-04-14T23:30:02.466Z,7.91
2024-04-14T23:35:03.085Z,7.8
2024-04-14T23:40:02.931Z,8.04
2024-04-14T23:45:02.618Z,8.09
2024-04-14T23:50:02.263Z,8.22
2024-04-14T23:55:04.008Z,8.33
